Time;durP1;ratioP1;P1;durP2;ratioP2;P2;SDS_P1;SDS_P2;PMS_P1;PMS_P2;Temp;Humidity;BMP_temperature;BMP_pressure;BME280_temperature;BME280_humidity;BME280_pressure;Samples;Min_cycle;Max_cycle;Signal;HPM_P1;HPM_P2
2021/03/06 00:00:52;;;;;;;3.50;2.57;;;;;;;-0.22;58.63;100107.84;1664592;85;21181;-64
2021/03/06 00:03:21;;;;;;;4.70;2.93;;;;;;;-0.28;58.57;100121.72;1676003;85;21179;-64
2021/03/06 00:05:49;;;;;;;5.47;2.63;;;;;;;-0.29;58.41;100110.02;1706573;84;22078;-63
2021/03/06 00:08:16;;;;;;;2.63;2.30;;;;;;;-0.32;58.14;100108.52;1694401;84;21138;-63
2021/03/06 00:10:44;;;;;;;3.57;2.60;;;;;;;-0.36;57.70;100118.28;1675972;85;22397;-64
2021/03/06 00:13:12;;;;;;;4.13;2.90;;;;;;;-0.37;57.39;100114.81;1706526;84;21213;-64
2021/03/06 00:15:40;;;;;;;3.57;2.30;;;;;;;-0.41;57.37;100116.15;1718831;83;21121;-65
2021/03/06 00:18:08;;;;;;;3.47;2.40;;;;;;;-0.54;56.83;100107.44;1694235;84;21162;-63
2021/03/06 00:20:36;;;;;;;5.47;3.60;;;;;;;-0.54;56.36;100120.64;1694196;84;21135;-64
2021/03/06 00:23:04;;;;;;;4.50;2.67;;;;;;;-0.55;55.92;100120.31;1675728;85;22354;-64
2021/03/06 00:25:32;;;;;;;5.53;2.87;;;;;;;-0.56;55.75;100126.58;1694254;84;21008;-64
2021/03/06 00:28:00;;;;;;;5.67;3.70;;;;;;;-0.54;55.75;100119.81;1694322;83;21576;-63
2021/03/06 00:30:28;;;;;;;7.07;3.30;;;;;;;-0.55;55.61;100118.16;1676056;85;22014;-62
2021/03/06 00:32:55;;;;;;;4.87;3.07;;;;;;;-0.59;55.27;100119.00;1706465;84;21229;-63
2021/03/06 00:35:23;;;;;;;5.87;3.43;;;;;;;-0.57;55.58;100117.48;1694168;84;21232;-70
2021/03/06 00:37:51;;;;;;;3.33;2.73;;;;;;;-0.61;55.83;100124.10;1675798;85;21932;-64
2021/03/06 00:40:19;;;;;;;4.83;3.17;;;;;;;-0.63;55.79;100116.37;1706634;84;21603;-64
2021/03/06 00:42:46;;;;;;;3.13;2.30;;;;;;;-0.63;55.86;100123.47;1694236;84;21477;-64
2021/03/06 00:45:16;;;;;;;5.60;2.83;;;;;;;-0.69;55.93;100128.09;1675973;85;21198;-66
2021/03/06 00:47:45;;;;;;;3.70;2.50;;;;;;;-0.75;56.22;100120.82;1694227;84;22146;-63
2021/03/06 00:50:16;;;;;;;5.30;2.40;;;;;;;-0.81;56.49;100131.55;1675992;85;21584;-63
2021/03/06 00:52:44;;;;;;;7.40;3.50;;;;;;;-0.98;57.01;100130.74;1694105;84;21198;-63
2021/03/06 00:55:13;;;;;;;4.90;3.00;;;;;;;-0.99;57.22;100134.36;1674160;85;21199;-63
2021/03/06 00:57:41;;;;;;;4.47;3.43;;;;;;;-0.98;57.36;100123.31;1705079;84;21156;-63
2021/03/06 01:00:14;;;;;;;4.27;3.00;;;;;;;-1.04;57.43;100119.51;1705050;84;21213;-63
2021/03/06 01:02:42;;;;;;;6.77;2.63;;;;;;;-1.10;57.48;100126.76;1680537;85;21617;-64
2021/03/06 01:05:13;;;;;;;3.70;2.90;;;;;;;-1.13;57.33;100132.87;1706256;84;21148;-62
2021/03/06 01:07:41;;;;;;;4.33;2.90;;;;;;;-1.16;57.21;100123.48;1707385;84;21172;-67
2021/03/06 01:10:20;;;;;;;3.73;2.60;;;;;;;-1.21;57.01;100112.59;1681096;85;21176;-64
2021/03/06 01:12:48;;;;;;;5.90;2.50;;;;;;;-1.19;57.02;100121.14;1704794;84;21183;-65
2021/03/06 01:15:18;;;;;;;4.10;2.90;;;;;;;-1.16;56.92;100126.61;1705005;84;21164;-62
2021/03/06 01:17:46;;;;;;;4.50;3.83;;;;;;;-1.23;56.64;100133.52;1680631;85;21611;-65
2021/03/06 01:20:18;;;;;;;4.80;3.73;;;;;;;-1.22;56.33;100130.72;1705013;84;21161;-66
2021/03/06 01:22:46;;;;;;;10.13;4.20;;;;;;;-1.30;56.39;100125.45;1704958;84;21582;-65
2021/03/06 01:25:15;;;;;;;8.20;3.63;;;;;;;-1.34;56.18;100127.56;1680507;85;21453;-66
2021/03/06 01:27:43;;;;;;;6.53;4.30;;;;;;;-1.33;56.17;100129.22;1704933;84;21628;-64
2021/03/06 01:30:12;;;;;;;26.00;9.57;;;;;;;-1.38;55.55;100124.92;1704940;84;21593;-64
2021/03/06 01:32:40;;;;;;;11.20;5.23;;;;;;;-1.38;55.84;100128.05;1705021;84;22256;-64
2021/03/06 01:35:11;;;;;;;14.67;5.30;;;;;;;-1.39;55.64;100129.86;1712570;83;21669;-65
2021/03/06 01:37:40;;;;;;;15.00;4.80;;;;;;;-1.36;55.69;100130.05;1712477;83;21400;-65
2021/03/06 01:40:13;;;;;;;9.93;4.40;;;;;;;-1.33;55.36;100127.90;1680510;85;21646;-64
2021/03/06 01:42:41;;;;;;;11.78;6.08;;;;;;;-1.30;55.20;100131.22;1705172;84;21195;-64
2021/03/06 01:45:11;;;;;;;9.30;4.63;;;;;;;-1.30;54.98;100133.84;1705295;84;21664;-62
2021/03/06 01:47:39;;;;;;;5.37;3.53;;;;;;;-1.35;54.61;100137.80;1714606;83;21127;-65
2021/03/06 01:50:08;;;;;;;9.00;4.63;;;;;;;-1.35;54.86;100138.30;1706252;84;21217;-64
2021/03/06 01:52:37;;;;;;;5.10;3.20;;;;;;;-1.32;54.82;100148.02;1680762;85;21635;-64
2021/03/06 01:55:06;;;;;;;6.40;3.83;;;;;;;-1.32;54.84;100144.06;1679260;83;21738;-66
2021/03/06 01:57:34;;;;;;;6.17;3.17;;;;;;;-1.30;54.97;100144.41;1712584;83;21112;-65
2021/03/06 02:00:06;;;;;;;6.47;3.13;;;;;;;-1.28;54.85;100151.64;1686450;83;21212;-66
2021/03/06 02:02:37;;;;;;;7.20;4.17;;;;;;;-1.30;54.96;100151.00;1704280;84;21594;-65
2021/03/06 02:05:07;;;;;;;6.93;3.67;;;;;;;-1.35;54.94;100152.80;1704881;84;21211;-64
2021/03/06 02:07:35;;;;;;;7.93;2.77;;;;;;;-1.41;54.82;100158.72;1712637;83;21183;-63
2021/03/06 02:10:04;;;;;;;4.97;3.23;;;;;;;-1.44;54.86;100161.17;1712425;83;21611;-66
2021/03/06 02:12:37;;;;;;;2.63;2.23;;;;;;;-1.41;54.98;100166.63;1705019;84;21249;-65
2021/03/06 02:15:28;;;;;;;2.13;1.83;;;;;;;-1.45;54.22;100174.05;1704987;84;21589;-65
2021/03/06 02:18:10;;;;;;;3.00;2.70;;;;;;;-1.57;53.67;100177.13;1704947;84;21131;-66
2021/03/06 02:21:00;;;;;;;3.40;2.53;;;;;;;-1.62;53.52;100174.14;1680607;85;21666;-71
2021/03/06 02:24:08;;;;;;;6.47;2.27;;;;;;;-1.63;53.78;100181.22;1705081;84;21057;-65
2021/03/06 02:27:19;;;;;;;6.00;2.67;;;;;;;-1.62;53.69;100188.16;1680666;85;21687;-68
2021/03/06 02:29:53;;;;;;;1.97;1.83;;;;;;;-1.61;53.38;100187.17;1705510;84;21377;-64
2021/03/06 02:32:30;;;;;;;5.43;2.53;;;;;;;-1.65;52.88;100193.76;1705226;84;21187;-64
2021/03/06 02:35:16;;;;;;;4.63;2.90;;;;;;;-1.77;52.21;100191.88;1704628;84;21187;-64
2021/03/06 02:37:50;;;;;;;5.37;3.00;;;;;;;-1.84;52.43;100194.83;1712828;83;21069;-65
2021/03/06 02:40:17;;;;;;;;;;;;;;;-1.88;52.89;100200.09;1715461;83;21207;-66
2021/03/06 02:42:45;;;;;;;5.60;3.10;;;;;;;-1.88;52.78;100196.14;1705174;84;21217;-65
2021/03/06 02:45:14;;;;;;;4.30;2.10;;;;;;;-1.90;53.12;100209.13;1705202;84;21633;-66
2021/03/06 02:47:41;;;;;;;6.23;2.17;;;;;;;-1.88;53.10;100214.59;1705146;84;21029;-65
2021/03/06 02:50:10;;;;;;;6.53;2.10;;;;;;;-1.86;53.20;100209.97;1705192;84;21117;-66
2021/03/06 02:52:38;;;;;;;2.20;2.00;;;;;;;-1.82;53.12;100213.94;1712872;83;21159;-65
2021/03/06 02:55:09;;;;;;;5.10;1.93;;;;;;;-1.82;52.89;100225.80;1705135;84;21225;-67
2021/03/06 02:58:05;;;;;;;1.70;1.60;;;;;;;-1.81;52.92;100220.05;1703475;81;21140;-65
2021/03/06 03:01:02;;;;;;;2.43;2.10;;;;;;;-1.82;52.86;100224.48;1676069;85;21564;-66
2021/03/06 03:03:57;;;;;;;3.60;2.33;;;;;;;-1.83;52.55;100227.30;1702630;84;21159;-65
2021/03/06 03:06:38;;;;;;;3.27;2.23;;;;;;;-1.84;52.57;100235.70;1676116;85;21592;-64
2021/03/06 03:09:10;;;;;;;3.37;2.17;;;;;;;-1.88;52.21;100236.99;1676079;85;21389;-67
2021/03/06 03:12:00;;;;;;;3.57;2.07;;;;;;;-1.94;52.20;100248.64;1647397;87;21142;-64
2021/03/06 03:14:47;;;;;;;4.50;2.87;;;;;;;-1.97;52.21;100247.16;1702685;84;21137;-64
2021/03/06 03:17:26;;;;;;;3.10;2.33;;;;;;;-2.01;52.12;100249.75;1624199;84;21216;-65
2021/03/06 03:20:25;;;;;;;2.37;2.17;;;;;;;-2.09;51.78;100245.75;1676138;85;21170;-65
2021/03/06 03:23:01;;;;;;;5.80;3.97;;;;;;;-2.19;51.94;100245.02;1702549;84;22229;-64
2021/03/06 03:25:30;;;;;;;8.27;5.10;;;;;;;-2.23;52.03;100247.14;1674055;84;22015;-66
2021/03/06 03:27:58;;;;;;;8.27;5.80;;;;;;;-2.22;51.91;100250.13;1680523;84;21139;-65
2021/03/06 03:30:25;;;;;;;7.00;4.87;;;;;;;-2.25;51.87;100252.21;1702591;84;22287;-64
2021/03/06 03:32:55;;;;;;;13.07;7.00;;;;;;;-2.24;52.01;100249.44;1702619;84;21128;-63
2021/03/06 03:35:24;;;;;;;12.10;6.70;;;;;;;-2.18;52.08;100253.27;1702684;84;21389;-63
2021/03/06 03:37:52;;;;;;;14.70;9.63;;;;;;;-2.11;52.03;100250.86;1702596;84;21611;-66
2021/03/06 03:40:20;;;;;;;11.60;7.20;;;;;;;-2.09;51.95;100251.51;1702751;84;21632;-64
2021/03/06 03:42:48;;;;;;;6.03;4.40;;;;;;;-2.08;52.07;100250.05;1702537;84;21068;-66
2021/03/06 03:45:17;;;;;;;6.07;3.87;;;;;;;-2.08;52.00;100260.59;1702601;84;21163;-63
2021/03/06 03:47:45;;;;;;;8.13;4.67;;;;;;;-2.02;52.09;100261.78;1702552;84;21394;-66
2021/03/06 03:50:15;;;;;;;5.93;4.30;;;;;;;-1.98;51.86;100266.59;1702590;84;21179;-63
2021/03/06 03:52:46;;;;;;;5.47;4.10;;;;;;;-1.97;51.70;100262.97;1702609;84;21186;-63
2021/03/06 03:55:15;;;;;;;8.97;3.87;;;;;;;-2.06;51.66;100272.30;1702735;84;21207;-63
2021/03/06 03:57:47;;;;;;;3.80;2.50;;;;;;;-2.07;51.89;100274.10;1710507;83;21167;-63
2021/03/06 04:00:18;;;;;;;3.33;2.70;;;;;;;-2.10;51.80;100275.71;1735415;82;21425;-63
2021/03/06 04:02:47;;;;;;;3.53;3.13;;;;;;;-2.11;51.92;100278.52;1735252;82;21075;-65
2021/03/06 04:05:16;;;;;;;5.83;3.10;;;;;;;-2.22;52.09;100276.47;1735219;82;21165;-66
2021/03/06 04:07:50;;;;;;;4.57;3.47;;;;;;;-2.28;52.24;100280.19;1735227;82;21130;-65
2021/03/06 04:10:22;;;;;;;3.20;2.87;;;;;;;-2.34;52.40;100284.26;1735289;82;21204;-64
2021/03/06 04:12:51;;;;;;;3.47;2.77;;;;;;;-2.38;52.65;100268.91;1735176;82;21375;-65
2021/03/06 04:15:20;;;;;;;6.63;2.87;;;;;;;-2.35;52.69;100279.97;1735293;82;21582;-63
2021/03/06 04:17:48;;;;;;;3.83;2.40;;;;;;;-2.33;52.72;100274.55;1735224;82;21153;-64
2021/03/06 04:20:20;;;;;;;2.50;2.30;;;;;;;-2.47;52.61;100295.68;1735215;82;21208;-64
2021/03/06 04:22:48;;;;;;;2.27;2.07;;;;;;;-2.49;52.83;100279.67;1735262;82;21124;-65
2021/03/06 04:25:16;;;;;;;2.83;2.00;;;;;;;-2.50;53.04;100273.61;1735267;82;21378;-64
2021/03/06 04:27:45;;;;;;;3.80;1.83;;;;;;;-2.46;53.06;100281.55;1735168;82;21121;-65
2021/03/06 04:30:14;;;;;;;3.37;2.10;;;;;;;-2.45;52.94;100274.47;1735226;82;20974;-63
2021/03/06 04:32:42;;;;;;;3.63;2.00;;;;;;;-2.46;53.10;100278.91;1735205;82;21113;-64
2021/03/06 04:35:11;;;;;;;2.27;1.87;;;;;;;-2.47;53.12;100277.24;1735692;82;21117;-65
2021/03/06 04:37:39;;;;;;;4.17;2.07;;;;;;;-2.43;53.19;100278.59;1735699;82;22399;-63
2021/03/06 04:40:11;;;;;;;3.10;1.73;;;;;;;-2.44;53.10;100284.83;1735247;82;21689;-63
2021/03/06 04:42:39;;;;;;;2.00;1.90;;;;;;;-2.46;53.15;100285.49;1735353;82;21205;-63
2021/03/06 04:45:08;;;;;;;5.60;2.03;;;;;;;-2.49;53.13;100284.95;1735298;82;21635;-64
2021/03/06 04:47:42;;;;;;;6.17;3.93;;;;;;;-2.54;53.17;100289.34;1735288;82;21583;-66
2021/03/06 04:50:10;;;;;;;1.93;1.83;;;;;;;-2.58;53.40;100293.27;1735263;82;21364;-63
2021/03/06 04:52:39;;;;;;;3.73;3.13;;;;;;;-2.59;53.59;100294.75;1735133;82;21567;-64
2021/03/06 04:55:08;;;;;;;3.43;2.13;;;;;;;-2.65;53.69;100297.02;1735086;82;21034;-66
2021/03/06 04:57:36;;;;;;;4.20;2.03;;;;;;;-2.66;53.91;100304.56;1735031;82;21165;-66
2021/03/06 05:00:06;;;;;;;3.33;2.53;;;;;;;-2.71;54.08;100297.59;1735225;82;21161;-63
2021/03/06 05:02:36;;;;;;;3.43;2.17;;;;;;;-2.67;54.24;100298.12;1735161;82;21078;-65
2021/03/06 05:05:08;;;;;;;2.53;1.67;;;;;;;-2.65;54.26;100298.33;1735204;82;21553;-64
2021/03/06 05:07:36;;;;;;;3.07;2.23;;;;;;;-2.63;54.30;100295.52;1735224;82;21104;-65
2021/03/06 05:10:11;;;;;;;3.27;1.93;;;;;;;-2.60;54.46;100297.05;1735159;82;21632;-63
2021/03/06 05:12:39;;;;;;;1.77;1.53;;;;;;;-2.61;54.77;100301.48;1735186;82;21173;-64
2021/03/06 05:15:08;;;;;;;2.37;2.03;;;;;;;-2.61;55.11;100306.74;1735051;82;21275;-63
2021/03/06 05:17:35;;;;;;;3.80;2.00;;;;;;;-2.64;55.49;100312.32;1735133;82;21196;-64
2021/03/06 05:20:05;;;;;;;5.03;3.30;;;;;;;-2.67;55.77;100322.64;1735100;82;20982;-64
2021/03/06 05:22:33;;;;;;;2.83;1.77;;;;;;;-2.69;55.96;100327.73;1709701;82;21173;-63
2021/03/06 05:25:01;;;;;;;5.93;2.80;;;;;;;-2.67;56.04;100333.17;1735100;82;21609;-63
2021/03/06 05:27:31;;;;;;;2.17;1.90;;;;;;;-2.66;56.19;100330.89;1735048;82;21363;-64
2021/03/06 05:29:59;;;;;;;4.23;3.30;;;;;;;-2.62;56.24;100344.58;1735152;82;21630;-63
2021/03/06 05:32:27;;;;;;;7.40;4.33;;;;;;;-2.59;56.20;100339.52;1734983;82;21149;-65
2021/03/06 05:34:55;;;;;;;4.90;3.27;;;;;;;-2.56;56.25;100349.25;1734964;82;21035;-64
2021/03/06 05:37:23;;;;;;;5.63;2.53;;;;;;;-2.52;56.22;100360.30;1735015;82;21172;-62
2021/03/06 05:39:51;;;;;;;2.53;2.30;;;;;;;-2.50;56.15;100356.56;1735043;82;21656;-64
2021/03/06 05:42:19;;;;;;;4.17;2.57;;;;;;;-2.47;56.14;100356.73;1735115;82;21621;-63
2021/03/06 05:44:46;;;;;;;7.73;3.93;;;;;;;-2.44;56.09;100363.01;1735054;82;21037;-63
2021/03/06 05:47:14;;;;;;;5.43;3.00;;;;;;;-2.39;55.85;100358.12;1735083;82;21593;-63
2021/03/06 05:49:42;;;;;;;2.83;1.83;;;;;;;-2.38;55.45;100373.78;1735158;82;21574;-63
2021/03/06 05:52:10;;;;;;;6.03;2.83;;;;;;;-2.35;55.32;100372.16;1735159;82;21569;-63
2021/03/06 05:54:40;;;;;;;3.17;2.40;;;;;;;-2.32;55.26;100369.73;1735032;82;22304;-63
2021/03/06 05:57:08;;;;;;;4.33;2.67;;;;;;;-2.31;54.81;100375.34;1732877;82;21217;-63
2021/03/06 05:59:35;;;;;;;3.73;2.80;;;;;;;-2.30;54.87;100379.12;1710225;83;21659;-65
2021/03/06 06:02:03;;;;;;;4.27;3.87;;;;;;;-2.28;54.48;100385.56;1687562;84;21588;-66
2021/03/06 06:04:32;;;;;;;4.03;3.07;;;;;;;-2.25;54.51;100382.13;1727371;83;21223;-63
2021/03/06 06:07:01;;;;;;;2.77;2.30;;;;;;;-2.20;54.51;100383.00;1709811;83;21185;-65
2021/03/06 06:09:32;;;;;;;5.80;2.47;;;;;;;-2.15;54.28;100393.08;1709903;83;21581;-65
2021/03/06 06:12:00;;;;;;;4.73;3.20;;;;;;;-2.13;53.50;100402.51;1706611;83;21169;-63
2021/03/06 06:14:30;;;;;;;3.10;2.47;;;;;;;-2.13;53.53;100401.19;1708645;83;21159;-64
2021/03/06 06:16:59;;;;;;;2.13;1.90;;;;;;;-2.09;53.74;100414.88;1709903;83;21612;-65
2021/03/06 06:19:28;;;;;;;5.97;2.80;;;;;;;-2.03;53.55;100406.38;1726982;83;21157;-64
2021/03/06 06:21:55;;;;;;;4.03;2.87;;;;;;;-2.01;53.58;100407.88;1637144;85;21786;-62
2021/03/06 06:24:24;;;;;;;5.87;3.00;;;;;;;-1.97;53.59;100413.20;1727364;83;21638;-66
2021/03/06 06:26:59;;;;;;;3.80;2.97;;;;;;;-1.92;53.10;100418.82;1709853;83;21162;-61
2021/03/06 06:29:40;;;;;;;3.80;2.77;;;;;;;-1.82;53.46;100409.02;1889110;76;26592;-63
2021/03/06 06:32:11;;;;;;;5.40;2.85;;;;;;;-1.79;52.76;100423.72;1860130;77;21919;-62
2021/03/06 06:34:41;;;;;;;4.77;4.03;;;;;;;-1.73;52.56;100423.13;1860274;77;21254;-64
2021/03/06 06:37:12;;;;;;;3.03;2.57;;;;;;;-1.66;52.10;100422.83;1822135;78;21043;-64
2021/03/06 06:39:41;;;;;;;7.23;1.93;;;;;;;-1.58;51.87;100434.75;1822255;78;21006;-62
2021/03/06 06:42:09;;;;;;;2.73;2.03;;;;;;;-1.55;51.78;100430.51;1822346;78;21043;-62
2021/03/06 06:44:38;;;;;;;2.80;2.53;;;;;;;-1.49;51.42;100440.94;1822285;78;21027;-64
2021/03/06 06:47:16;;;;;;;2.70;2.13;;;;;;;-1.46;50.33;100437.98;1822266;78;23520;-62
2021/03/06 06:49:53;;;;;;;6.30;2.40;;;;;;;-1.47;49.45;100436.31;1822101;78;21643;-61
2021/03/06 06:52:22;;;;;;;3.40;2.27;;;;;;;-1.52;47.94;100436.78;1822398;78;21580;-61
2021/03/06 06:54:54;;;;;;;2.17;1.87;;;;;;;-1.48;48.86;100437.30;1822223;78;21162;-63
2021/03/06 06:57:23;;;;;;;2.47;2.27;;;;;;;-1.43;49.05;100442.94;1822430;78;21212;-66
2021/03/06 07:00:09;;;;;;;3.37;1.97;;;;;;;-1.39;49.02;100443.79;1822224;78;21344;-65
2021/03/06 07:02:37;;;;;;;6.03;2.37;;;;;;;-1.39;48.55;100441.16;1822068;78;21166;-64
2021/03/06 07:05:07;;;;;;;4.93;1.90;;;;;;;-1.33;49.10;100441.86;1822224;78;21588;-65
2021/03/06 07:07:42;;;;;;;6.47;3.70;;;;;;;-1.27;48.82;100430.36;1822230;78;21665;-62
2021/03/06 07:10:14;;;;;;;4.00;1.97;;;;;;;-1.19;48.39;100433.03;1822271;78;21144;-62
2021/03/06 07:12:57;;;;;;;3.40;2.10;;;;;;;-1.13;47.70;100445.61;1822317;78;21365;-63
2021/03/06 07:15:26;;;;;;;5.07;3.20;;;;;;;-1.10;46.65;100432.92;1822497;78;21533;-62
2021/03/06 07:17:55;;;;;;;2.87;2.30;;;;;;;-1.03;47.28;100442.38;1815248;78;21218;-62
2021/03/06 07:20:28;;;;;;;8.77;3.37;;;;;;;-0.97;45.93;100441.27;1789913;80;21145;-65
2021/03/06 07:23:11;;;;;;;2.73;2.30;;;;;;;-0.92;44.46;100444.75;1790084;80;21039;-63
2021/03/06 07:25:39;;;;;;;6.60;2.80;;;;;;;-0.87;44.28;100449.06;1790196;80;21130;-61
2021/03/06 07:28:07;;;;;;;5.20;2.77;;;;;;;-0.87;44.58;100435.87;1792181;79;21173;-62
2021/03/06 07:30:35;;;;;;;3.53;2.97;;;;;;;-0.79;45.29;100443.81;1798991;79;21648;-63
2021/03/06 07:33:06;;;;;;;5.40;2.20;;;;;;;-0.69;45.37;100433.13;1798880;79;21667;-62
2021/03/06 07:35:37;;;;;;;4.13;1.90;;;;;;;-0.58;45.03;100449.53;1798928;79;21185;-62
2021/03/06 07:38:08;;;;;;;3.53;2.30;;;;;;;-0.52;45.50;100451.52;1798808;79;22783;-62
2021/03/06 07:40:39;;;;;;;3.93;3.00;;;;;;;-0.49;44.27;100453.02;1798367;79;21141;-66
2021/03/06 07:43:16;;;;;;;3.50;2.37;;;;;;;-0.54;42.41;100457.95;1798254;79;20999;-63
2021/03/06 07:45:47;;;;;;;3.97;2.83;;;;;;;-0.56;42.22;100460.75;1798422;79;21698;-63
2021/03/06 07:48:19;;;;;;;4.15;2.35;;;;;;;-0.55;42.67;100465.54;1798586;79;21525;-63
2021/03/06 07:50:50;;;;;;;4.07;2.00;;;;;;;-0.48;42.96;100464.73;1796405;78;21379;-62
2021/03/06 07:53:20;;;;;;;3.63;2.47;;;;;;;-0.47;42.17;100474.32;1829149;78;21012;-64
2021/03/06 07:55:49;;;;;;;3.10;1.73;;;;;;;-0.46;42.38;100468.55;1829732;78;21011;-61
2021/03/06 07:58:21;;;;;;;2.47;1.80;;;;;;;-0.46;41.77;100454.02;1791819;80;21582;-63
2021/03/06 08:00:53;;;;;;;4.20;2.30;;;;;;;-0.43;42.55;100464.25;1788549;80;21220;-61
2021/03/06 08:03:33;;;;;;;3.37;2.15;;;;;;;-0.34;42.60;100459.84;1792128;80;21206;-64
2021/03/06 08:06:04;;;;;;;6.63;2.53;;;;;;;-0.28;42.38;100458.69;1792503;80;21015;-61
2021/03/06 08:08:43;;;;;;;4.13;3.00;;;;;;;-0.19;42.63;100456.92;1793511;79;21144;-61
2021/03/06 08:11:18;;;;;;;4.60;2.27;;;;;;;-0.18;41.68;100459.38;1798079;79;21129;-64
2021/03/06 08:13:56;;;;;;;3.98;2.92;;;;;;;-0.14;41.45;100458.55;1798002;79;21140;-63
2021/03/06 08:16:32;;;;;;;2.40;2.03;;;;;;;-0.11;41.79;100470.14;1798038;79;22258;-61
2021/03/06 08:21:53;;;;;;;5.20;4.27;;;;;;;0.06;41.16;100459.92;1918305;73;27026;-62
2021/03/06 08:24:24;;;;;;;4.17;2.87;;;;;;;0.09;41.55;100457.45;1885987;76;20942;-62
2021/03/06 08:27:09;;;;;;;4.47;2.70;;;;;;;0.20;41.81;100464.56;1885564;76;21176;-65
2021/03/06 08:29:40;;;;;;;3.47;1.67;;;;;;;0.31;41.88;100456.80;1884608;76;20970;-64
2021/03/06 08:32:25;;;;;;;5.07;3.57;;;;;;;0.43;41.29;100456.82;1886031;76;21124;-65
2021/03/06 08:35:01;;;;;;;5.97;2.97;;;;;;;0.50;41.27;100459.61;1886074;76;21002;-63
2021/03/06 08:37:30;;;;;;;3.23;2.43;;;;;;;0.54;40.82;100448.52;1886126;76;20990;-62
2021/03/06 08:40:13;;;;;;;2.67;2.03;;;;;;;0.59;40.35;100443.56;1886052;76;21282;-62
2021/03/06 08:42:53;;;;;;;2.20;2.00;;;;;;;0.63;40.17;100448.84;1886051;76;21229;-63
2021/03/06 08:45:28;;;;;;;3.70;1.90;;;;;;;0.67;38.30;100454.66;1886247;76;20997;-63
2021/03/06 08:48:01;;;;;;;4.57;2.50;;;;;;;0.70;39.09;100444.55;1886807;76;21013;-62
2021/03/06 08:50:32;;;;;;;7.20;2.25;;;;;;;0.75;40.39;100450.17;1886287;76;21156;-62
2021/03/06 08:53:14;;;;;;;3.30;1.93;;;;;;;0.85;41.27;100459.25;1886007;75;21343;-60
2021/03/06 08:55:45;;;;;;;8.53;2.87;;;;;;;0.99;40.86;100455.08;1885974;76;21605;-61
2021/03/06 08:58:20;;;;;;;4.43;1.63;;;;;;;1.11;40.26;100448.41;1886083;76;21080;-63
2021/03/06 09:00:50;;;;;;;3.97;2.00;;;;;;;1.17;39.93;100445.09;1885978;76;20998;-59
2021/03/06 09:03:24;;;;;;;1.98;1.87;;;;;;;1.21;39.14;100443.25;1886166;76;21144;-61
2021/03/06 09:06:00;;;;;;;2.93;2.37;;;;;;;1.15;38.09;100446.58;1886074;76;21354;-61
2021/03/06 09:08:28;;;;;;;4.37;1.70;;;;;;;1.09;38.55;100447.28;1885912;76;21148;-60
2021/03/06 09:10:58;;;;;;;2.80;1.73;;;;;;;1.07;37.50;100453.73;1886106;76;21554;-60
2021/03/06 09:13:31;;;;;;;1.93;1.40;;;;;;;1.07;38.23;100452.41;1886005;76;21085;-61
2021/03/06 09:16:04;;;;;;;2.37;1.63;;;;;;;1.06;38.56;100440.15;1886051;76;21094;-62
2021/03/06 09:18:34;;;;;;;2.30;1.70;;;;;;;1.08;37.99;100458.04;1854812;76;22253;-61
2021/03/06 09:21:06;;;;;;;3.57;1.80;;;;;;;1.11;37.89;100468.28;1851197;76;21613;-65
2021/03/06 09:23:37;;;;;;;3.33;2.13;;;;;;;1.09;38.13;100451.25;1851486;77;21521;-63
2021/03/06 09:26:14;;;;;;;1.87;1.43;;;;;;;1.13;37.69;100449.91;1851314;77;21179;-60
2021/03/06 09:28:50;;;;;;;7.87;1.90;;;;;;;1.18;37.96;100474.08;1853980;77;20958;-61
2021/03/06 09:31:27;;;;;;;2.33;1.90;;;;;;;1.17;37.78;100469.77;1852591;77;21465;-61
2021/03/06 09:33:55;;;;;;;3.50;1.53;;;;;;;1.15;37.68;100468.30;1850739;77;21124;-61
2021/03/06 09:36:30;;;;;;;1.53;1.43;;;;;;;1.17;37.16;100466.28;1850743;77;21171;-62
2021/03/06 09:39:00;;;;;;;3.63;1.70;;;;;;;1.17;37.30;100476.39;1850687;76;20938;-60
2021/03/06 09:41:34;;;;;;;2.87;1.80;;;;;;;1.21;36.70;100476.87;1850794;77;21099;-63
2021/03/06 09:44:06;;;;;;;1.77;1.67;;;;;;;1.21;36.92;100457.00;1850869;77;22118;-64
2021/03/06 09:46:35;;;;;;;2.50;1.70;;;;;;;1.22;36.47;100459.98;1850737;77;21561;-62
2021/03/06 09:49:14;;;;;;;3.60;1.47;;;;;;;1.21;36.04;100477.70;1850718;77;21107;-61
2021/03/06 09:51:53;;;;;;;1.87;1.60;;;;;;;1.20;35.98;100448.22;1850846;77;21541;-64
2021/03/06 09:54:22;;;;;;;2.13;1.80;;;;;;;1.20;36.13;100479.21;1850844;77;21134;-62
2021/03/06 09:56:59;;;;;;;3.47;1.47;;;;;;;1.24;36.30;100460.65;1850801;77;22050;-63
2021/03/06 09:59:28;;;;;;;2.17;1.93;;;;;;;1.32;36.00;100468.56;1850681;77;21140;-61
2021/03/06 10:02:08;;;;;;;3.87;2.20;;;;;;;1.40;35.61;100443.84;1850765;76;21605;-60
2021/03/06 10:04:37;;;;;;;3.60;1.93;;;;;;;1.48;35.89;100451.78;1850790;77;21433;-63
2021/03/06 10:07:09;;;;;;;5.83;2.10;;;;;;;1.58;35.74;100437.29;1850616;77;21076;-61
2021/03/06 10:09:37;;;;;;;5.95;2.12;;;;;;;1.68;35.70;100452.48;1850911;76;22557;-61
2021/03/06 10:12:14;;;;;;;2.50;1.97;;;;;;;1.77;35.34;100440.53;1850637;77;21151;-62
2021/03/06 10:14:41;;;;;;;2.10;1.60;;;;;;;1.79;35.23;100437.19;1850726;77;21164;-62
2021/03/06 10:17:13;;;;;;;10.70;2.17;;;;;;;1.82;34.67;100449.63;1850607;76;21216;-61
2021/03/06 10:19:49;;;;;;;4.13;2.00;;;;;;;1.84;34.38;100421.08;1850499;77;21028;-63
2021/03/06 10:22:18;;;;;;;2.10;1.87;;;;;;;1.87;34.43;100431.33;1865680;75;21314;-62
2021/03/06 10:24:57;;;;;;;2.63;2.00;;;;;;;1.91;34.62;100451.72;1866575;76;21104;-61
2021/03/06 10:27:39;;;;;;;1.90;1.50;;;;;;;1.89;34.37;100435.14;1866557;76;21562;-61
2021/03/06 10:30:20;;;;;;;5.28;3.22;;;;;;;1.89;34.05;100422.70;1866732;76;21131;-63
2021/03/06 10:32:55;;;;;;;4.37;1.57;;;;;;;1.89;34.13;100424.03;1866693;76;21163;-62
2021/03/06 10:35:43;;;;;;;5.53;2.00;;;;;;;1.92;33.70;100425.52;1866542;76;21388;-60
2021/03/06 10:38:13;;;;;;;3.43;1.93;;;;;;;1.95;34.32;100424.66;1866629;76;22222;-61
2021/03/06 10:40:48;;;;;;;2.27;1.80;;;;;;;2.02;34.03;100411.50;1866495;76;21107;-61
2021/03/06 10:43:34;;;;;;;3.00;1.70;;;;;;;2.06;34.01;100419.45;1865493;76;21612;-60
2021/03/06 10:46:18;;;;;;;5.17;1.83;;;;;;;2.11;33.68;100394.55;1863096;76;21632;-61
2021/03/06 10:48:59;;;;;;;3.30;2.50;;;;;;;2.23;34.34;100405.55;1866662;76;21359;-62
2021/03/06 10:51:52;;;;;;;1.50;1.40;;;;;;;2.34;34.19;100400.66;1866303;76;21143;-62
2021/03/06 10:54:22;;;;;;;5.42;2.33;;;;;;;2.47;33.74;100392.06;1866852;76;21354;-62
2021/03/06 10:57:06;;;;;;;2.73;1.60;;;;;;;2.59;33.73;100406.04;1866725;76;21528;-66
2021/03/06 10:59:35;;;;;;;2.30;1.60;;;;;;;2.67;33.34;100388.39;1866707;76;21115;-61
2021/03/06 11:02:03;;;;;;;1.33;1.17;;;;;;;2.69;33.37;100415.58;1866500;76;21353;-63
2021/03/06 11:04:36;;;;;;;2.85;2.05;;;;;;;2.67;33.53;100401.67;1866373;76;21139;-62
2021/03/06 11:07:07;;;;;;;1.98;1.70;;;;;;;2.68;33.65;100396.19;1866512;76;21068;-62
2021/03/06 11:09:38;;;;;;;2.00;1.47;;;;;;;2.67;33.81;100397.69;1866428;76;21147;-62
2021/03/06 11:12:17;;;;;;;1.50;1.40;;;;;;;2.68;34.06;100403.33;1866617;76;21553;-60
2021/03/06 11:14:44;;;;;;;1.87;1.47;;;;;;;2.63;33.46;100409.18;1866629;76;21210;-61
2021/03/06 11:17:15;;;;;;;2.80;2.10;;;;;;;2.66;33.83;100398.19;1866429;75;21580;-62
2021/03/06 11:19:44;;;;;;;3.72;2.98;;;;;;;2.68;33.71;100385.56;1866538;76;21143;-61
2021/03/06 11:22:12;;;;;;;5.10;2.42;;;;;;;2.71;34.29;100397.14;1853862;76;21593;-62
2021/03/06 11:24:40;;;;;;;4.95;3.33;;;;;;;2.74;34.11;100387.97;1850495;77;21522;-62
2021/03/06 11:27:08;;;;;;;3.77;2.42;;;;;;;2.79;33.97;100385.59;1850384;77;22443;-63
2021/03/06 11:30:27;;;;;;;3.77;1.80;;;;;;;2.79;33.81;100387.75;1850617;76;21160;-64
2021/03/06 11:33:00;;;;;;;2.47;2.27;;;;;;;2.86;34.06;100390.52;1811103;78;21216;-62
2021/03/06 11:35:29;;;;;;;6.70;1.90;;;;;;;2.99;33.47;100372.92;1813141;77;21210;-62
2021/03/06 11:37:58;;;;;;;5.03;2.83;;;;;;;3.00;33.65;100382.55;1850615;77;21105;-61
2021/03/06 11:40:32;;;;;;;3.33;2.42;;;;;;;2.99;34.02;100371.59;1850595;77;22070;-60
2021/03/06 11:43:00;;;;;;;2.90;1.77;;;;;;;2.97;33.93;100370.94;1850757;77;21498;-63
2021/03/06 11:45:28;;;;;;;4.50;1.67;;;;;;;2.91;33.80;100362.89;1850543;77;20915;-62
2021/03/06 11:47:56;;;;;;;6.53;2.20;;;;;;;2.88;34.27;100367.23;1850469;76;21640;-61
2021/03/06 11:50:28;;;;;;;2.95;2.02;;;;;;;2.87;34.51;100376.23;1850580;77;21148;-63
2021/03/06 11:52:56;;;;;;;1.80;1.70;;;;;;;2.89;34.44;100406.91;1850617;77;21360;-65